Salzburg/freisaal, Austria

10:30 AM CEST on March 27, 2017 (GMT +0200)
Kobergerweg | | Change Station

Elev 1417 ft 47.78 °N, 13.04 °E | Updated 9 minutes ago

Clear
Clear
41.0 °F
Feels Like 41 °F
N
0.6
Wind Variable Wind from NE
Gusts 1.9 mph

Today
High -- | Low -- °F
--% Chance of Precip.
Yesterday
High -- | Low -- °F
Precip. -- in
Pressure 30.24 in
Visibility -9999.0 miles
Clouds
Windchill 41 °F
Dew Point 34 °F
Humidity 77%
Rainfall 0.00 in
Snow Depth Not available.
6:56 AM 7:30 PM
Waning Crescent, 1% visible
METAR LOWS 270820Z 18003KT 140V240 CAVOK 08/00 Q1024 NOSIG
Pressure 30.24 in
Visibility -9999.0 miles
Clouds
Windchill 41 °F
Dew Point 34 °F
Humidity 77%
Rainfall 0.00 in
Snow Depth Not available.
6:56 AM 7:30 PM
Waning Crescent, 1% visible
METAR LOWS 270820Z 18003KT 140V240 CAVOK 08/00 Q1024 NOSIG

Get Severe Weather Alerts

Thanks for signing up!

Be on the lookout for a verification email in your inbox.

You'll start receiving the daily forecast at 8 AM.

×

10-Day Weather Forecast

×

Almanac

Astronomy

Mar. 27, 2017 Rise Set
Actual Time
Civil Twilight
Nautical Twilight
Astronomical Twilight
Moon
Length of Visible Light
Length of Day
Tomorrow will be .
, % of the Moon is Illuminated

Today's Extremes

Country Highs Country Lows

Community

WunderPhotos

Upload Photos

1,962,540 photos uploaded!

WunderBlog® & News

Nearby

Air Quality

  Air Quality AQ Index Pollutant
Not available.

Snow Depth

Station Depth Elevation

Earthquake Activity

City Distance Mag. Time & Date
Minimum magnitude displayed is 2.5.

Earthquake Activity

City Distance Mag. Time & Date
Minimum magnitude displayed is 2.5.

Coastal Water Temperatures

Place Temperature

Stations

Nearby Weather Stations

Station Location Temp. Windchill Dew Point Humidity Wind Precip. Elev Updated Type